Mont-Louis, Canada
Current Conditions -  °F | °C
As of 9:00 AM on Thursday 30 Oct 2014 (Local Time) from CYGP Reporting Station
Few Clouds Few Clouds  
Wind Chill: 41°   Ceiling: Unl
Heat Index: 46°   Visibility: 15mi
Dew Point: 37°   Wind: 12mph
Humidity: 71%   Direction: 260°W
Pressure: 29.63"   Gusts: NA
Location:  49.22°N, 65.75°W
Report Text: CYGP 301300Z 26010KT 15SM FEW140 08/03 A2963 RMK AC1 SLP033
Loading
Personal Weather Stations






























Interactive Weather Map
Tropical Storm Tracking
New forecast layout! Learn more

10-Day Weather Forecast

Advertisements
Track Severe Weather on mobile